createdAt,value
2023-04-25T00:00:03.710Z,9.60
2023-04-25T00:05:03.606Z,9.70
2023-04-25T00:10:02.166Z,9.60
2023-04-25T00:15:01.902Z,9.70
2023-04-25T00:20:04.923Z,9.60
2023-04-25T00:35:02.026Z,9.70
2023-04-25T00:40:02.519Z,9.50
2023-04-25T00:45:04.231Z,9.40
2023-04-25T00:50:01.698Z,9.50
2023-04-25T00:55:01.847Z,9.60
2023-04-25T01:00:05.192Z,9.50
2023-04-25T01:15:01.952Z,9.40
2023-04-25T01:25:02.137Z,9.50
2023-04-25T01:40:02.108Z,9.40
2023-04-25T01:45:02.381Z,9.50
2023-04-25T01:55:02.425Z,9.70
2023-04-25T02:00:05.091Z,9.50
2023-04-25T02:05:01.900Z,9.60
2023-04-25T02:10:02.074Z,9.40
2023-04-25T02:15:02.448Z,9.50
2023-04-25T02:25:04.628Z,9.40
2023-04-25T02:30:02.801Z,9.30
2023-04-25T02:35:05.726Z,9.20
2023-04-25T02:40:03.747Z,9.10
2023-04-25T02:45:02.660Z,9.20
2023-04-25T02:50:02.406Z,9.10
2023-04-25T02:55:02.091Z,9.30
2023-04-25T03:00:04.691Z,9.20
2023-04-25T03:05:03.197Z,9.40
2023-04-25T03:10:02.368Z,9.20
2023-04-25T03:15:02.656Z,9.30
2023-04-25T03:20:03.982Z,9.20
2023-04-25T03:25:02.677Z,9.40
2023-04-25T03:30:02.753Z,9.30
2023-04-25T03:50:02.901Z,9.20
2023-04-25T03:55:02.308Z,9.00
2023-04-25T04:05:03.738Z,9.20
2023-04-25T04:10:02.345Z,9.10
2023-04-25T04:20:03.624Z,8.90
2023-04-25T04:25:02.799Z,8.80
2023-04-25T04:30:03.258Z,8.60
2023-04-25T04:35:03.564Z,8.80
2023-04-25T05:05:02.443Z,9.10
2023-04-25T05:15:02.492Z,9.20
2023-04-25T05:25:03.618Z,9.40
2023-04-25T05:30:02.876Z,9.50
2023-04-25T05:35:02.849Z,9.60
2023-04-25T05:40:06.632Z,9.70
2023-04-25T05:45:02.989Z,9.50
2023-04-25T05:55:02.941Z,9.70
2023-04-25T06:15:04.777Z,9.90
2023-04-25T06:25:04.301Z,10.00
2023-04-25T06:30:02.830Z,9.80
2023-04-25T06:35:03.268Z,10.00
2023-04-25T06:40:02.826Z,10.10
2023-04-25T06:45:03.026Z,10.00
2023-04-25T06:50:02.889Z,9.90
2023-04-25T06:55:02.946Z,9.80
2023-04-25T07:00:05.475Z,9.70
2023-04-25T07:05:04.059Z,10.00
2023-04-25T07:10:02.891Z,10.10
2023-04-25T07:15:05.907Z,10.30
2023-04-25T07:20:03.780Z,10.40
2023-04-25T07:25:04.236Z,10.50
2023-04-25T07:30:04.017Z,10.30
2023-04-25T07:35:03.418Z,10.20
2023-04-25T07:40:04.044Z,10.10
2023-04-25T07:50:03.511Z,10.20
2023-04-25T07:55:03.197Z,10.60
2023-04-25T08:00:03.045Z,10.70
2023-04-25T08:05:03.527Z,10.80
2023-04-25T08:15:03.749Z,10.90
2023-04-25T08:25:03.168Z,11.20
2023-04-25T08:30:03.830Z,10.80
2023-04-25T08:35:03.435Z,10.60
2023-04-25T08:40:07.051Z,10.30
2023-04-25T08:45:06.635Z,9.90
2023-04-25T08:50:05.353Z,9.10
2023-04-25T08:55:04.733Z,8.80
2023-04-25T09:00:03.837Z,9.10
2023-04-25T09:05:04.286Z,9.70
2023-04-25T09:10:03.427Z,10.30
2023-04-25T09:15:05.648Z,10.90
2023-04-25T09:20:07.498Z,10.80
2023-04-25T09:25:04.574Z,11.00
2023-04-25T09:30:03.605Z,10.90
2023-04-25T09:35:04.529Z,11.30
2023-04-25T09:40:06.265Z,11.40
2023-04-25T09:45:03.884Z,11.50
2023-04-25T09:50:03.316Z,11.40
2023-04-25T09:55:03.405Z,12.20
2023-04-25T10:00:09.053Z,12.00
2023-04-25T10:05:07.091Z,11.60
2023-04-25T10:10:05.156Z,11.40
2023-04-25T10:15:04.237Z,-1.40
2023-04-25T10:20:10.524Z,-4.40
2023-04-25T10:25:04.494Z,-6.40
2023-04-25T10:30:08.901Z,-5.50
2023-04-25T10:35:12.128Z,-8.80
2023-04-25T10:40:09.803Z,-9.20
2023-04-25T10:45:05.813Z,-10.30
2023-04-25T10:50:06.272Z,-10.70
2023-04-25T10:55:03.888Z,-11.80
2023-04-25T11:00:05.206Z,-12.60
2023-04-25T11:05:03.536Z,1.60
2023-04-25T11:10:04.160Z,1.50
2023-04-25T11:15:05.817Z,-10.50
2023-04-25T11:20:07.411Z,-9.60
2023-04-25T11:25:05.675Z,1.00
2023-04-25T11:30:15.440Z,-11.60
2023-04-25T11:35:03.780Z,-9.50
2023-04-25T11:40:06.428Z,-11.90
2023-04-25T11:45:04.017Z,1.90
2023-04-25T11:50:05.758Z,-12.60
2023-04-25T11:55:08.044Z,-10.30
2023-04-25T12:00:06.066Z,-7.90
2023-04-25T12:05:21.611Z,-7.00
2023-04-25T12:10:10.293Z,-6.00
2023-04-25T12:15:15.769Z,-4.90
2023-04-25T12:20:08.452Z,-4.60
2023-04-25T12:25:05.030Z,-4.80
2023-04-25T12:30:03.907Z,-4.40
2023-04-25T12:35:04.710Z,-4.30
2023-04-25T12:40:04.325Z,-3.50
2023-04-25T12:45:03.865Z,-3.00
2023-04-25T12:55:03.961Z,-3.40
2023-04-25T13:00:04.620Z,-3.20
2023-04-25T13:05:03.832Z,-2.40
2023-04-25T13:10:04.539Z,-1.30
2023-04-25T13:15:04.313Z,-2.40
2023-04-25T13:20:08.566Z,-2.20
2023-04-25T13:25:05.382Z,-1.80
2023-04-25T13:30:07.384Z,-1.70
2023-04-25T13:35:07.078Z,-2.40
2023-04-25T13:40:06.415Z,-2.20
2023-04-25T13:45:04.136Z,-2.50
2023-04-25T13:50:05.953Z,-2.70
2023-04-25T13:55:06.767Z,-2.50
2023-04-25T14:00:08.649Z,-2.40
2023-04-25T14:10:05.388Z,-2.20
2023-04-25T14:15:04.343Z,-2.60
2023-04-25T14:20:05.808Z,-2.70
2023-04-25T14:25:04.128Z,-1.80
2023-04-25T14:30:04.730Z,-1.70
2023-04-25T14:35:04.122Z,-1.50
2023-04-25T14:40:05.120Z,-0.90
2023-04-25T14:45:06.216Z,-1.50
2023-04-25T14:50:05.067Z,-2.20
2023-04-25T15:00:06.918Z,-2.30
2023-04-25T15:05:04.933Z,-2.00
2023-04-25T15:15:05.690Z,-1.90
2023-04-25T15:20:06.440Z,-1.80
2023-04-25T15:25:04.357Z,-1.70
2023-04-25T15:35:06.177Z,-1.60
2023-04-25T15:40:10.957Z,-1.50
2023-04-25T15:45:05.923Z,-1.20
2023-04-25T15:50:06.271Z,-1.10
2023-04-25T15:55:05.235Z,-1.40
2023-04-25T16:05:04.397Z,-1.70
2023-04-25T16:10:05.154Z,-1.10
2023-04-25T16:20:08.831Z,-1.00
2023-04-25T16:25:04.758Z,-0.80
2023-04-25T16:30:07.259Z,-0.70
2023-04-25T16:40:07.858Z,-0.60
2023-04-25T16:45:04.773Z,-0.30
2023-04-25T16:50:05.316Z,-0.50
2023-04-25T17:00:05.415Z,-0.40
2023-04-25T17:05:04.503Z,-0.50
2023-04-25T17:15:05.520Z,-0.30
2023-04-25T17:20:06.014Z,0.00
2023-04-25T17:25:06.155Z,12.70
2023-04-25T17:30:06.084Z,12.60
2023-04-25T17:40:07.812Z,12.70
2023-04-25T17:45:05.511Z,12.60
2023-04-25T17:50:05.427Z,12.20
2023-04-25T18:00:06.816Z,12.10
2023-04-25T18:05:08.057Z,11.70
2023-04-25T18:15:05.856Z,11.80
2023-04-25T18:20:07.350Z,11.30
2023-04-25T18:30:07.859Z,11.20
2023-04-25T18:40:05.140Z,11.40
2023-04-25T18:45:05.385Z,11.60
2023-04-25T18:55:04.933Z,11.40
2023-04-25T19:00:05.957Z,11.30
2023-04-25T19:05:05.054Z,11.10
2023-04-25T19:10:05.034Z,11.20
2023-04-25T19:15:05.752Z,11.10
2023-04-25T19:25:10.753Z,11.20
2023-04-25T19:30:09.130Z,11.10
2023-04-25T19:35:07.501Z,10.90
2023-04-25T19:40:06.393Z,10.80
2023-04-25T19:45:05.049Z,10.70
2023-04-25T20:05:06.186Z,10.50
2023-04-25T20:15:05.776Z,10.60
2023-04-25T20:25:07.085Z,10.40
2023-04-25T20:30:06.966Z,10.50
2023-04-25T20:35:08.039Z,10.40
2023-04-25T20:45:06.736Z,10.60
2023-04-25T20:50:06.100Z,10.50
2023-04-25T20:55:06.240Z,10.60
2023-04-25T21:00:15.293Z,10.50
2023-04-25T21:10:05.162Z,10.40
2023-04-25T21:15:05.197Z,10.10
2023-04-25T21:20:09.358Z,10.30
2023-04-25T21:25:05.627Z,10.40
2023-04-25T21:30:05.563Z,10.20
2023-04-25T21:35:05.658Z,10.30
2023-04-25T21:40:06.451Z,10.10
2023-04-25T21:45:06.311Z,9.90
2023-04-25T22:00:15.638Z,9.80
2023-04-25T22:05:05.458Z,9.90
2023-04-25T22:15:07.199Z,10.00
2023-04-25T22:20:10.053Z,10.10
2023-04-25T22:25:06.231Z,9.90
2023-04-25T22:30:07.714Z,10.00
2023-04-25T22:35:06.392Z,9.80
2023-04-25T22:40:07.860Z,9.50
2023-04-25T22:45:07.043Z,9.40
2023-04-25T22:55:05.800Z,9.30
2023-04-25T23:05:05.979Z,9.10
2023-04-25T23:10:07.391Z,9.20
2023-04-25T23:15:06.362Z,9.30
2023-04-25T23:20:06.487Z,9.40
2023-04-25T23:25:06.517Z,9.20
2023-04-25T23:30:05.680Z,9.30
2023-04-25T23:40:07.502Z,9.20
2023-04-25T23:45:06.352Z,9.10
2023-04-25T23:55:05.736Z,9.00
